Time;durP1;ratioP1;P1;durP2;ratioP2;P2;SDS_P1;SDS_P2;PMS_P1;PMS_P2;Temp;Humidity;BMP_temperature;BMP_pressure;BME280_temperature;BME280_humidity;BME280_pressure;Samples;Min_cycle;Max_cycle;Signal;HPM_P1;HPM_P2
2022/09/28 00:00:30;;;;;;;5.45;1.10;;;;;;;10.05;73.16;97416.09;5179494;28;20057;-73
2022/09/28 00:03:21;;;;;;;4.43;1.20;;;;;;;10.23;73.06;97403.34;5165534;28;20042;-71
2022/09/28 00:06:14;;;;;;;2.20;1.08;;;;;;;10.49;72.82;97407.41;5168293;28;20050;-75
2022/09/28 00:09:05;;;;;;;1.75;0.90;;;;;;;10.66;71.97;97397.44;5178912;28;20105;-75
2022/09/28 00:11:56;;;;;;;2.03;0.90;;;;;;;10.57;72.07;97394.09;5181640;28;20053;-75
2022/09/28 00:14:46;;;;;;;2.72;0.77;;;;;;;10.65;71.86;97374.63;5179662;28;20539;-74
2022/09/28 00:17:36;;;;;;;2.55;0.90;;;;;;;10.42;73.44;97380.00;5180933;28;20466;-76
2022/09/28 00:20:26;;;;;;;1.45;1.00;;;;;;;10.50;71.98;97361.38;5173035;28;20136;-77
2022/09/28 00:23:16;;;;;;;1.90;1.08;;;;;;;10.55;73.15;97366.94;5165313;28;20108;-72
2022/09/28 00:26:06;;;;;;;3.33;1.38;;;;;;;10.42;73.33;97354.31;5179482;28;20066;-72
2022/09/28 00:28:58;;;;;;;2.75;1.02;;;;;;;10.55;72.75;97353.69;5164650;28;20046;-74
2022/09/28 00:31:58;;;;;;;1.45;0.85;;;;;;;10.51;72.91;97345.28;5167114;28;20180;-73
2022/09/28 00:34:50;;;;;;;1.88;1.10;;;;;;;10.86;71.37;97342.88;5159112;28;20049;-76
2022/09/28 00:37:40;;;;;;;2.40;1.00;;;;;;;10.55;73.94;97335.94;5167431;28;20050;-72
2022/09/28 00:40:30;;;;;;;2.25;0.93;;;;;;;10.56;72.41;97320.88;5166199;28;20107;-76
2022/09/28 00:43:22;;;;;;;1.85;1.20;;;;;;;10.65;72.11;97322.41;5179729;28;20524;-74
2022/09/28 00:46:34;;;;;;;5.45;1.10;;;;;;;10.84;72.10;97325.50;5164955;28;20111;-78
2022/09/28 00:49:49;;;;;;;7.85;1.30;;;;;;;10.44;73.13;97314.41;5182461;28;20128;-75
2022/09/28 00:52:48;;;;;;;5.28;1.00;;;;;;;10.84;73.30;97313.06;5182086;28;20053;-76
2022/09/28 00:55:49;;;;;;;1.88;1.00;;;;;;;10.74;73.00;97315.19;5181381;28;20050;-76
2022/09/28 00:58:44;;;;;;;2.70;1.10;;;;;;;10.75;72.99;97316.81;5177933;28;20057;-74
2022/09/28 01:01:36;;;;;;;3.03;1.00;;;;;;;11.03;72.68;97296.56;5187689;28;20152;-71
2022/09/28 01:04:26;;;;;;;2.05;1.25;;;;;;;11.01;71.87;97297.75;5179291;28;20065;-75
2022/09/28 01:07:20;;;;;;;4.53;1.27;;;;;;;10.98;71.89;97276.91;5165317;28;20097;-74
2022/09/28 01:10:10;;;;;;;3.33;1.10;;;;;;;11.17;71.87;97286.91;5163184;28;20065;-72
2022/09/28 01:13:00;;;;;;;4.13;1.30;;;;;;;11.03;72.22;97282.47;5179322;28;20065;-74
2022/09/28 01:16:11;;;;;;;2.75;1.60;;;;;;;11.10;72.03;97263.97;5154602;28;20049;-75
2022/09/28 01:19:32;;;;;;;4.32;1.60;;;;;;;11.00;72.42;97272.25;5165997;28;20053;-73
2022/09/28 01:23:00;;;;;;;3.40;1.80;;;;;;;11.09;72.39;97260.47;5164034;28;20061;-72
2022/09/28 01:26:11;;;;;;;4.43;1.40;;;;;;;11.09;71.80;97249.88;5164814;28;20117;-72
2022/09/28 01:29:23;;;;;;;4.32;1.63;;;;;;;11.00;73.18;97237.78;5161640;28;20484;-71
2022/09/28 01:32:24;;;;;;;4.95;1.63;;;;;;;11.19;72.75;97234.47;5162459;28;20064;-73
2022/09/28 01:35:52;;;;;;;4.03;1.67;;;;;;;11.23;71.87;97230.44;5179064;28;20042;-77
2022/09/28 01:38:46;;;;;;;4.00;1.30;;;;;;;10.98;73.31;97210.59;5164580;28;20516;-71
2022/09/28 01:41:40;;;;;;;4.32;1.73;;;;;;;10.88;73.75;97204.81;5180289;28;20064;-77
2022/09/28 01:44:38;;;;;;;3.72;1.65;;;;;;;10.70;74.88;97190.16;5176126;28;20053;-72
2022/09/28 01:47:35;;;;;;;3.15;1.40;;;;;;;10.93;72.88;97183.84;5179439;28;20049;-73
2022/09/28 01:50:28;;;;;;;6.05;1.20;;;;;;;11.27;71.83;97194.53;5160233;28;20479;-76
2022/09/28 01:53:24;;;;;;;7.57;1.73;;;;;;;11.10;72.78;97182.56;5180815;28;20049;-74
2022/09/28 01:56:31;;;;;;;6.28;1.58;;;;;;;11.28;72.26;97180.25;5167223;28;20104;-71
2022/09/28 01:59:26;;;;;;;3.35;1.10;;;;;;;11.04;72.87;97165.59;5165167;28;20514;-76
2022/09/28 02:02:24;;;;;;;4.03;1.42;;;;;;;11.32;72.50;97163.94;5189475;28;20179;-74
2022/09/28 02:05:21;;;;;;;1.40;1.20;;;;;;;11.33;72.47;97160.31;5167877;28;20163;-76
2022/09/28 02:08:20;;;;;;;2.17;1.27;;;;;;;11.29;72.52;97160.69;5179447;28;20172;-74
2022/09/28 02:11:15;;;;;;;4.00;1.17;;;;;;;11.56;71.35;97155.56;5178103;28;20187;-71
2022/09/28 02:14:10;;;;;;;2.72;1.48;;;;;;;11.61;71.58;97158.44;5153167;28;20057;-76
2022/09/28 02:17:02;;;;;;;3.45;1.23;;;;;;;11.38;71.92;97124.19;5165974;28;20049;-71
2022/09/28 02:19:54;;;;;;;3.88;1.20;;;;;;;11.46;72.38;97149.78;5162497;28;20089;-77
2022/09/28 02:22:54;;;;;;;3.50;1.33;;;;;;;11.41;72.52;97144.22;5167042;28;20066;-74
2022/09/28 02:25:52;;;;;;;3.58;1.13;;;;;;;11.54;72.17;97139.00;5164775;28;20050;-72
2022/09/28 02:28:43;;;;;;;1.92;1.00;;;;;;;11.77;71.13;97134.22;5174548;28;20053;-71
2022/09/28 02:31:34;;;;;;;3.08;1.10;;;;;;;11.79;71.53;97117.25;5164231;28;20489;-72
2022/09/28 02:34:25;;;;;;;4.18;1.17;;;;;;;11.94;70.55;97128.59;5168270;28;20050;-75
2022/09/28 02:37:15;;;;;;;8.20;1.63;;;;;;;11.84;71.69;97112.19;5177550;28;20046;-75
2022/09/28 02:40:30;;;;;;;3.33;1.10;;;;;;;11.80;72.99;97126.88;5187792;28;20050;-72
2022/09/28 02:43:37;;;;;;;6.38;1.27;;;;;;;12.09;70.74;97118.66;5169803;28;20133;-74
2022/09/28 02:46:52;;;;;;;5.43;1.05;;;;;;;11.95;71.59;97122.28;5169714;28;20088;-75
2022/09/28 02:50:13;;;;;;;10.10;3.60;;;;;;;11.98;71.04;97112.06;5166059;28;20527;-72
2022/09/28 02:53:25;;;;;;;7.18;1.20;;;;;;;12.06;70.78;97103.13;5164519;28;20131;-74
2022/09/28 02:56:36;;;;;;;6.75;1.20;;;;;;;11.94;72.75;97110.00;5168193;28;20065;-74
2022/09/28 02:59:32;;;;;;;7.10;1.30;;;;;;;12.22;70.98;97110.72;5165940;28;20092;-72
2022/09/28 03:02:29;;;;;;;6.35;1.70;;;;;;;12.14;71.18;97084.34;5167542;28;20064;-72
2022/09/28 03:05:46;;;;;;;6.70;1.40;;;;;;;12.42;70.28;97096.69;5167756;28;20042;-72
2022/09/28 03:08:57;;;;;;;4.85;1.08;;;;;;;11.90;72.53;97098.16;5166576;28;20097;-75
2022/09/28 03:11:55;;;;;;;8.73;1.27;;;;;;;12.12;71.28;97097.00;5166116;28;20053;-75
2022/09/28 03:14:45;;;;;;;5.93;1.25;;;;;;;12.34;71.59;97091.53;5156179;28;20064;-76
2022/09/28 03:17:35;;;;;;;6.20;1.10;;;;;;;12.29;70.43;97089.50;5155899;28;20140;-74
2022/09/28 03:20:28;;;;;;;6.75;1.40;;;;;;;12.28;71.61;97089.69;5166889;28;20092;-72
2022/09/28 03:23:18;;;;;;;8.13;1.48;;;;;;;12.12;72.60;97091.69;5182159;28;20087;-75
2022/09/28 03:26:15;;;;;;;5.65;1.02;;;;;;;12.24;71.04;97118.50;5193312;28;20075;-75
2022/09/28 03:29:06;;;;;;;3.03;1.05;;;;;;;12.04;72.02;97154.81;5167479;28;20064;-75
2022/09/28 03:31:56;;;;;;;7.35;1.58;;;;;;;11.92;73.39;97143.91;5164224;28;20420;-72
2022/09/28 03:34:47;;;;;;;6.05;1.20;;;;;;;11.79;73.96;97149.97;5169242;28;20506;-75
2022/09/28 03:37:37;;;;;;;5.78;1.52;;;;;;;11.89;72.69;97147.00;5167144;28;21284;-71
2022/09/28 03:40:28;;;;;;;4.85;1.00;;;;;;;11.95;73.77;97147.03;5168353;28;20045;-73
2022/09/28 03:43:19;;;;;;;2.17;1.00;;;;;;;12.01;72.81;97150.69;5192479;28;20068;-71
2022/09/28 03:46:09;;;;;;;4.80;1.45;;;;;;;11.93;72.99;97157.00;5171012;28;20188;-77
2022/09/28 03:49:05;;;;;;;9.80;1.00;;;;;;;11.87;72.54;97144.50;5162263;28;20058;-71
2022/09/28 03:51:55;;;;;;;6.55;0.80;;;;;;;11.70;72.50;97132.56;5164801;28;20061;-71
2022/09/28 03:54:46;;;;;;;3.50;0.90;;;;;;;11.95;72.36;97143.50;5167718;28;20081;-73
2022/09/28 03:57:39;;;;;;;3.22;0.90;;;;;;;11.85;72.60;97140.41;5154895;28;20079;-73
2022/09/28 04:00:29;;;;;;;6.10;0.82;;;;;;;11.97;71.89;97130.88;5164098;28;20140;-73
2022/09/28 04:03:19;;;;;;;1.95;0.63;;;;;;;11.90;70.87;97148.63;5161313;28;20057;-73
2022/09/28 04:06:10;;;;;;;2.45;0.70;;;;;;;11.97;71.26;97152.94;5175441;28;20053;-71
2022/09/28 04:09:00;;;;;;;5.57;0.80;;;;;;;12.02;71.12;97152.34;5164181;28;20059;-71
2022/09/28 04:11:51;;;;;;;3.45;0.82;;;;;;;11.80;71.58;97156.09;5161905;28;20188;-72
2022/09/28 04:14:54;;;;;;;2.38;0.52;;;;;;;11.78;72.00;97153.63;5161761;28;20498;-75
2022/09/28 04:17:44;;;;;;;2.15;0.60;;;;;;;11.73;72.53;97156.88;5187579;28;20042;-73
2022/09/28 04:21:02;;;;;;;3.22;0.85;;;;;;;11.80;72.40;97148.13;5157538;28;20065;-71
2022/09/28 04:23:56;;;;;;;3.03;0.77;;;;;;;11.87;71.94;97149.81;5162697;28;20542;-73
2022/09/28 04:26:48;;;;;;;4.30;0.70;;;;;;;11.57;71.18;97132.47;5162752;28;20057;-75
2022/09/28 04:29:41;;;;;;;3.55;0.60;;;;;;;11.62;72.45;97145.97;5155073;28;20423;-77
2022/09/28 04:32:33;;;;;;;5.35;0.70;;;;;;;11.76;71.34;97142.41;5166927;28;20059;-71
2022/09/28 04:35:23;;;;;;;2.80;0.68;;;;;;;11.70;72.00;97144.00;5165608;28;20053;-77
2022/09/28 04:38:13;;;;;;;3.55;0.80;;;;;;;11.70;72.07;97136.03;5161211;28;20084;-71
2022/09/28 04:41:04;;;;;;;7.43;1.98;;;;;;;11.65;72.23;97146.41;5167696;28;20128;-75
2022/09/28 04:43:55;;;;;;;8.77;1.88;;;;;;;11.66;72.10;97142.75;5164650;28;20626;-71
2022/09/28 04:46:47;;;;;;;7.90;2.50;;;;;;;11.79;72.25;97154.44;5168013;28;20187;-71
2022/09/28 04:49:52;;;;;;;4.43;1.85;;;;;;;11.79;71.37;97157.09;5177552;28;20054;-74
2022/09/28 04:52:49;;;;;;;5.97;2.60;;;;;;;11.66;71.71;97140.09;5163115;28;20180;-72
2022/09/28 04:55:38;;;;;;;9.30;4.20;;;;;;;11.81;71.83;97157.72;5165866;28;20060;-75
2022/09/28 04:58:30;;;;;;;11.80;3.92;;;;;;;11.77;71.81;97155.47;5163648;28;20132;-73
2022/09/28 05:01:22;;;;;;;10.38;3.03;;;;;;;11.60;73.00;97163.94;5160448;28;20046;-74
2022/09/28 05:04:22;;;;;;;4.07;1.50;;;;;;;11.77;72.07;97157.31;5189132;28;20089;-73
2022/09/28 05:07:26;;;;;;;;;;;;;;;11.95;71.83;97154.13;5153515;28;20056;-74
2022/09/28 05:10:18;;;;;;;3.25;1.40;;;;;;;11.74;72.53;97153.19;5160351;28;19937;-75
2022/09/28 05:13:11;;;;;;;4.88;1.20;;;;;;;11.81;71.85;97158.53;5168797;28;20464;-74
2022/09/28 05:16:01;;;;;;;5.72;1.33;;;;;;;11.89;72.02;97170.88;5178076;28;20056;-74
2022/09/28 05:18:59;;;;;;;4.15;1.17;;;;;;;11.70;71.50;97153.78;5158303;28;20061;-73
2022/09/28 05:21:50;;;;;;;4.75;1.05;;;;;;;11.85;71.96;97173.09;5160471;28;20176;-75
2022/09/28 05:24:40;;;;;;;6.43;2.20;;;;;;;11.49;71.16;97123.66;5159632;28;20092;-74
2022/09/28 05:27:31;;;;;;;8.15;2.80;;;;;;;11.71;72.07;97169.50;5162383;28;20050;-72
2022/09/28 05:30:41;;;;;;;5.88;2.42;;;;;;;11.69;71.91;97160.94;5175604;28;20668;-76
2022/09/28 05:33:54;;;;;;;9.48;2.60;;;;;;;11.53;72.25;97156.75;5177904;28;20135;-76
2022/09/28 05:36:45;;;;;;;9.57;2.35;;;;;;;11.77;71.90;97173.22;5166926;28;20111;-73
2022/09/28 05:39:36;;;;;;;4.80;1.50;;;;;;;11.84;70.95;97160.84;5159181;28;20062;-73
2022/09/28 05:42:26;;;;;;;4.65;1.90;;;;;;;11.70;71.71;97154.59;5180696;28;20072;-72
2022/09/28 05:45:16;;;;;;;6.68;2.05;;;;;;;11.82;71.47;97138.13;5160741;28;20052;-72
2022/09/28 05:48:07;;;;;;;3.70;1.45;;;;;;;11.67;71.68;97154.19;5164619;28;20488;-75
2022/09/28 05:50:58;;;;;;;3.40;1.15;;;;;;;11.80;71.76;97158.75;5161570;28;20141;-74
2022/09/28 05:53:48;;;;;;;2.13;1.10;;;;;;;11.72;71.69;97157.91;5162207;28;20046;-71
2022/09/28 05:56:40;;;;;;;6.22;1.90;;;;;;;11.43;71.59;97160.78;5164507;28;20050;-74
2022/09/28 05:59:31;;;;;;;6.35;2.08;;;;;;;11.40;72.26;97171.78;5163233;28;20093;-74
2022/09/28 06:02:23;;;;;;;11.95;3.38;;;;;;;11.48;72.04;97182.22;5162080;28;20061;-73
2022/09/28 06:05:13;;;;;;;9.52;3.90;;;;;;;11.45;72.52;97188.75;5161248;28;20111;-72
2022/09/28 06:08:07;;;;;;;4.55;2.47;;;;;;;11.60;71.83;97183.34;5160322;28;20104;-73
2022/09/28 06:11:00;;;;;;;7.07;2.10;;;;;;;11.03;74.48;97190.47;5156158;28;20057;-74
2022/09/28 06:13:56;;;;;;;4.10;1.70;;;;;;;11.19;74.18;97199.16;5158975;28;20061;-73
2022/09/28 06:16:50;;;;;;;3.78;1.80;;;;;;;11.63;72.75;97212.16;5145924;28;20112;-73
2022/09/28 06:19:40;;;;;;;9.77;1.80;;;;;;;11.62;72.52;97207.88;5162930;28;20057;-74
2022/09/28 06:22:52;;;;;;;7.65;2.10;;;;;;;11.49;73.34;97205.94;5174351;28;20131;-74
2022/09/28 06:25:43;;;;;;;4.38;1.80;;;;;;;11.21;73.90;97190.00;5160486;28;20057;-75
2022/09/28 06:28:33;;;;;;;6.15;1.60;;;;;;;11.33;74.30;97202.75;5171671;28;20050;-76
2022/09/28 06:31:23;;;;;;;6.72;2.25;;;;;;;11.72;73.04;97197.72;5161246;28;20046;-74
2022/09/28 06:34:14;;;;;;;6.35;2.15;;;;;;;11.70;73.01;97210.38;5164782;28;20054;-73
2022/09/28 06:37:04;;;;;;;12.93;2.45;;;;;;;11.80;72.81;97210.00;5183268;28;20060;-73
2022/09/28 06:39:55;;;;;;;4.57;2.10;;;;;;;11.32;73.99;97214.38;5165489;28;20066;-75
2022/09/28 06:43:01;;;;;;;9.55;2.53;;;;;;;11.43;74.50;97224.47;5166538;28;20050;-74
2022/09/28 06:46:17;;;;;;;4.18;2.15;;;;;;;11.43;75.01;97229.78;5163224;28;20139;-76
2022/09/28 06:49:13;;;;;;;5.07;2.65;;;;;;;11.58;73.38;97214.56;5164088;28;20053;-72
2022/09/28 06:52:27;;;;;;;6.03;3.05;;;;;;;11.18;75.48;97234.66;5177717;28;20092;-73
2022/09/28 06:55:45;;;;;;;7.70;2.40;;;;;;;11.11;75.36;97223.16;5175830;28;20046;-74
2022/09/28 06:58:35;;;;;;;6.65;3.63;;;;;;;11.65;72.86;97238.50;5166063;28;20104;-76
2022/09/28 07:01:25;;;;;;;9.63;2.75;;;;;;;11.44;74.55;97236.72;5181282;28;20158;-74
2022/09/28 07:04:51;;;;;;;9.45;2.83;;;;;;;11.83;72.66;97238.84;5138423;28;20162;-74
2022/09/28 07:08:17;;;;;;;6.32;2.83;;;;;;;11.95;73.95;97239.97;5196406;28;20038;-76
2022/09/28 07:11:25;;;;;;;6.97;2.75;;;;;;;12.11;72.93;97248.63;5167010;28;20124;-73
2022/09/28 07:14:33;;;;;;;6.80;3.78;;;;;;;12.42;72.68;97245.53;5175720;28;20419;-74
2022/09/28 07:17:37;;;;;;;13.73;3.78;;;;;;;12.10;73.07;97247.81;5164360;28;20455;-73
2022/09/28 07:20:47;;;;;;;7.60;3.53;;;;;;;12.44;73.00;97259.41;5162218;28;20057;-74
2022/09/28 07:23:43;;;;;;;14.55;3.80;;;;;;;12.42;72.64;97249.00;5165007;28;20054;-73
2022/09/28 07:26:46;;;;;;;11.25;3.90;;;;;;;12.70;71.58;97280.78;5181737;28;20054;-73
2022/09/28 07:29:45;;;;;;;10.23;4.13;;;;;;;13.30;71.02;97274.81;5167014;28;20075;-73
2022/09/28 07:32:54;;;;;;;12.07;3.92;;;;;;;12.88;71.87;97287.38;5176646;28;20072;-76
2022/09/28 07:35:54;;;;;;;9.32;4.13;;;;;;;12.86;71.41;97271.63;5171651;28;20173;-77
2022/09/28 07:38:50;;;;;;;6.65;3.63;;;;;;;12.70;71.38;97293.28;5187656;28;20049;-74
2022/09/28 07:41:41;;;;;;;10.40;3.63;;;;;;;12.55;71.01;97293.44;5152854;28;20486;-75
2022/09/28 07:44:32;;;;;;;12.25;3.90;;;;;;;12.09;73.16;97290.53;5165525;28;20064;-76
2022/09/28 07:47:25;;;;;;;9.35;3.20;;;;;;;12.27;73.71;97300.63;5176526;28;20049;-76
2022/09/28 07:50:56;;;;;;;11.30;3.63;;;;;;;11.70;73.59;97305.13;5164844;28;20764;-75
2022/09/28 07:53:59;;;;;;;9.85;3.33;;;;;;;12.52;72.57;97315.09;5161855;28;20722;-74
2022/09/28 07:57:01;;;;;;;10.20;3.95;;;;;;;12.37;71.32;97322.34;5153407;28;20049;-75
2022/09/28 08:00:28;;;;;;;8.23;3.15;;;;;;;12.23;71.24;97316.16;5175468;28;20050;-75
2022/09/28 08:03:24;;;;;;;6.10;3.40;;;;;;;12.61;70.60;97324.50;5161401;28;20084;-74
2022/09/28 08:06:16;;;;;;;13.30;4.07;;;;;;;12.60;70.91;97287.50;5167873;28;20515;-73
2022/09/28 08:09:06;;;;;;;10.52;3.53;;;;;;;12.94;70.49;97327.31;5152258;28;20057;-75
2022/09/28 08:12:18;;;;;;;11.90;3.40;;;;;;;12.53;70.92;97329.19;5163862;28;20103;-76
2022/09/28 08:15:20;;;;;;;10.93;3.58;;;;;;;12.51;71.06;97329.38;5161293;28;20064;-76
2022/09/28 08:18:16;;;;;;;7.68;3.92;;;;;;;12.49;72.21;97335.94;5163729;28;20070;-74
2022/09/28 08:24:16;;;;;;;12.20;3.22;;;;;;;12.55;70.73;97343.09;5166825;28;20056;-76
2022/09/28 08:27:09;;;;;;;10.65;4.30;;;;;;;11.88;73.27;97329.38;5162237;28;20053;-73
2022/09/28 08:30:02;;;;;;;15.15;4.13;;;;;;;11.45;74.52;97339.19;5162646;28;20058;-74
2022/09/28 08:33:06;;;;;;;;;;;;;;;11.83;73.51;97337.09;5162956;28;20131;-76
2022/09/28 08:36:06;;;;;;;10.48;3.90;;;;;;;11.96;72.79;97331.91;5178027;28;20310;-74
2022/09/28 08:39:19;;;;;;;11.55;4.10;;;;;;;11.98;73.40;97334.38;5156811;28;20045;-73
2022/09/28 08:42:33;;;;;;;10.93;4.13;;;;;;;12.24;71.19;97336.38;5160739;28;20459;-75
2022/09/28 08:46:01;;;;;;;7.50;3.83;;;;;;;12.65;71.98;97355.03;5176954;28;20065;-72
2022/09/28 08:49:11;;;;;;;12.88;3.30;;;;;;;12.37;70.55;97355.06;5162393;28;20671;-73
2022/09/28 08:52:38;;;;;;;6.00;2.90;;;;;;;12.23;70.52;97356.81;5162655;28;20084;-72
2022/09/28 08:55:42;;;;;;;10.25;3.55;;;;;;;12.51;69.57;97358.63;5164884;28;20068;-74
2022/09/28 08:58:40;;;;;;;15.02;3.67;;;;;;;13.06;69.69;97364.81;5163217;28;20608;-72
2022/09/28 09:01:37;;;;;;;6.57;2.78;;;;;;;13.58;67.45;97360.69;5164740;28;20627;-75
2022/09/28 09:04:32;;;;;;;6.55;2.80;;;;;;;13.56;67.08;97365.38;5161000;28;20057;-74
2022/09/28 09:08:07;;;;;;;5.15;2.42;;;;;;;12.50;68.32;97342.88;5179703;28;20072;-74
2022/09/28 09:11:11;;;;;;;5.32;3.22;;;;;;;12.85;68.03;97375.59;5160030;28;20134;-75
2022/09/28 09:14:12;;;;;;;5.80;3.10;;;;;;;13.07;67.82;97376.28;5159820;28;20054;-73
2022/09/28 09:17:38;;;;;;;7.50;3.33;;;;;;;12.90;68.22;97384.59;5162398;28;20041;-75
2022/09/28 09:20:58;;;;;;;6.90;2.57;;;;;;;12.67;68.07;97387.56;5162235;28;20523;-73
2022/09/28 09:23:55;;;;;;;7.60;2.90;;;;;;;13.05;67.26;97384.47;5158585;28;20350;-77
2022/09/28 09:26:54;;;;;;;6.57;2.60;;;;;;;12.36;68.86;97377.34;5163330;28;20104;-75
2022/09/28 09:30:05;;;;;;;9.10;2.92;;;;;;;12.97;68.12;97392.59;5184633;28;20092;-75
2022/09/28 09:33:37;;;;;;;9.77;2.60;;;;;;;13.29;67.93;97390.31;5187281;28;20096;-75
2022/09/28 09:37:37;;;;;;;6.75;2.80;;;;;;;13.02;67.33;97403.50;5150398;28;20042;-76
2022/09/28 09:41:04;;;;;;;6.00;2.50;;;;;;;13.28;66.60;97399.31;5177203;28;20523;-75
2022/09/28 09:44:29;;;;;;;7.47;2.60;;;;;;;14.08;65.44;97398.44;5172758;28;20076;-73
2022/09/28 09:47:47;;;;;;;9.68;3.28;;;;;;;13.55;64.16;97400.22;5163723;28;20045;-75
2022/09/28 09:50:56;;;;;;;8.48;2.83;;;;;;;14.12;65.42;97406.00;5163148;28;20056;-75
2022/09/28 09:54:00;;;;;;;11.57;2.60;;;;;;;13.74;63.58;97399.44;5166462;28;20060;-74
2022/09/28 09:57:00;;;;;;;;;;;;;;;13.93;65.31;97408.44;5163082;28;20042;-74
2022/09/28 10:00:14;;;;;;;7.30;2.58;;;;;;;14.90;62.95;97406.97;5163694;28;19929;-73
2022/09/28 10:03:29;;;;;;;6.30;3.15;;;;;;;14.25;61.04;97395.34;5164472;28;20065;-76
2022/09/28 10:06:35;;;;;;;7.65;2.05;;;;;;;13.85;62.89;97411.31;5160924;28;20049;-73
2022/09/28 10:09:33;;;;;;;5.22;2.00;;;;;;;14.97;62.27;97409.59;5161130;28;20478;-72
2022/09/28 10:12:40;;;;;;;6.22;2.20;;;;;;;14.39;62.88;97417.47;5162332;28;20128;-74
2022/09/28 10:15:34;;;;;;;4.82;2.30;;;;;;;14.37;63.14;97415.03;5165109;28;20050;-73
2022/09/28 10:18:34;;;;;;;5.65;2.30;;;;;;;15.06;60.88;97412.84;5182191;28;20053;-71
2022/09/28 10:21:45;;;;;;;5.63;2.38;;;;;;;14.99;59.31;97416.34;5173155;28;20457;-74
2022/09/28 10:24:49;;;;;;;8.75;2.50;;;;;;;13.50;64.58;97414.13;5178640;28;20061;-76
2022/09/28 10:27:44;;;;;;;3.72;2.13;;;;;;;14.12;61.14;97411.34;5159655;28;20057;-75
2022/09/28 10:30:42;;;;;;;8.02;2.35;;;;;;;13.71;61.95;97412.31;5164314;28;20081;-73
2022/09/28 10:33:33;;;;;;;5.10;2.30;;;;;;;14.42;62.70;97409.06;5166152;28;20054;-73
2022/09/28 10:36:25;;;;;;;10.52;2.45;;;;;;;13.93;61.19;97413.78;5183255;28;20049;-74
2022/09/28 10:39:30;;;;;;;6.22;2.65;;;;;;;14.51;62.00;97395.34;5153013;28;20046;-74
2022/09/28 10:42:32;;;;;;;6.50;2.47;;;;;;;14.84;60.46;97402.47;5168925;28;20046;-74
2022/09/28 10:45:26;;;;;;;5.70;2.53;;;;;;;14.76;59.30;97392.00;5163062;28;20057;-74
2022/09/28 10:48:21;;;;;;;6.05;2.03;;;;;;;13.71;59.99;97412.31;5170283;28;20069;-73
2022/09/28 10:51:11;;;;;;;5.57;2.15;;;;;;;14.64;60.77;97404.34;5163910;28;20110;-71
2022/09/28 10:54:04;;;;;;;3.50;2.00;;;;;;;14.40;58.69;97409.25;5167756;28;20053;-72
2022/09/28 10:57:26;;;;;;;11.53;2.43;;;;;;;14.85;58.78;97406.75;5187241;28;20193;-73
2022/09/28 11:00:31;;;;;;;4.90;2.30;;;;;;;15.07;57.51;97409.97;5167832;28;20046;-72
2022/09/28 11:03:53;;;;;;;6.20;2.05;;;;;;;14.66;57.26;97404.94;5156300;28;20053;-73
2022/09/28 11:06:43;;;;;;;6.60;2.08;;;;;;;14.43;60.70;97402.69;5168724;28;20060;-74
2022/09/28 11:09:41;;;;;;;4.18;2.13;;;;;;;15.38;58.34;97411.06;5166001;28;20147;-75
2022/09/28 11:12:42;;;;;;;3.30;1.83;;;;;;;15.69;57.69;97410.31;5150355;28;20046;-76
2022/09/28 11:15:33;;;;;;;9.25;1.98;;;;;;;15.58;56.02;97403.75;5180091;28;20143;-75
2022/09/28 11:18:31;;;;;;;4.53;1.55;;;;;;;15.14;57.21;97407.28;5161626;28;20119;-75
2022/09/28 11:21:31;;;;;;;5.15;1.83;;;;;;;14.57;57.12;97394.53;5181036;28;20133;-75
2022/09/28 11:24:28;;;;;;;4.45;1.80;;;;;;;14.66;59.35;97400.44;5168942;28;20057;-75
2022/09/28 11:27:26;;;;;;;5.80;1.90;;;;;;;15.50;56.31;97380.81;5166638;28;20053;-78
2022/09/28 11:30:33;;;;;;;7.75;2.10;;;;;;;15.74;55.44;97395.28;5163914;28;20049;-77
2022/09/28 11:33:50;;;;;;;4.55;1.70;;;;;;;15.09;55.73;97397.22;5177973;28;20061;-77
2022/09/28 11:37:06;;;;;;;4.40;1.55;;;;;;;15.14;53.33;97405.44;5165883;28;20061;-76
2022/09/28 11:40:11;;;;;;;6.30;1.60;;;;;;;15.39;53.68;97399.34;5155444;28;20161;-78
2022/09/28 11:43:40;;;;;;;5.25;1.40;;;;;;;14.78;55.54;97390.75;5176142;28;20050;-76
2022/09/28 11:47:02;;;;;;;3.75;1.88;;;;;;;14.27;58.27;97398.59;5141767;28;20049;-74
2022/09/28 11:50:18;;;;;;;4.78;1.50;;;;;;;14.61;55.63;97388.78;5162214;28;20147;-75
2022/09/28 11:53:32;;;;;;;6.40;1.60;;;;;;;14.49;54.77;97386.69;5156150;28;20046;-74
2022/09/28 11:56:37;;;;;;;8.20;1.33;;;;;;;14.67;57.13;97385.25;5162206;28;20624;-74
2022/09/28 11:59:31;;;;;;;3.45;1.50;;;;;;;15.23;52.20;97376.63;5173860;28;20050;-74
2022/09/28 12:02:30;;;;;;;5.05;1.83;;;;;;;15.06;55.65;97378.97;5166800;28;20484;-75
2022/09/28 12:05:32;;;;;;;7.00;1.85;;;;;;;15.64;53.30;97376.19;5166760;28;20423;-73
2022/09/28 12:08:31;;;;;;;7.80;1.65;;;;;;;15.19;55.10;97380.75;5182213;28;20519;-74
2022/09/28 12:11:35;;;;;;;3.50;1.70;;;;;;;15.29;52.26;97378.44;5175853;28;20137;-72
2022/09/28 12:14:41;;;;;;;6.82;1.60;;;;;;;14.83;53.50;97376.78;5169953;28;20065;-73
2022/09/28 12:17:54;;;;;;;5.28;1.45;;;;;;;15.69;52.72;97387.09;5181434;28;20424;-74
2022/09/28 12:20:50;;;;;;;5.55;1.27;;;;;;;14.88;52.04;97384.19;5160330;28;20466;-73
2022/09/28 12:23:43;;;;;;;3.92;1.20;;;;;;;15.13;52.45;97370.91;5160553;28;20103;-74
2022/09/28 12:26:38;;;;;;;2.95;1.33;;;;;;;15.25;53.53;97383.41;5180130;28;20050;-74
2022/09/28 12:29:36;;;;;;;5.13;1.45;;;;;;;15.00;52.04;97382.50;5163629;28;20072;-73
2022/09/28 12:32:37;;;;;;;4.35;1.35;;;;;;;14.23;53.98;97382.22;5177786;28;20136;-74
2022/09/28 12:35:27;;;;;;;3.22;1.45;;;;;;;14.30;53.75;97384.88;5178419;28;20575;-73
2022/09/28 12:38:38;;;;;;;9.90;1.67;;;;;;;14.94;52.70;97367.31;5160405;28;20056;-73
2022/09/28 12:41:54;;;;;;;6.07;1.45;;;;;;;15.08;52.99;97357.41;5180507;28;20630;-71
2022/09/28 12:45:16;;;;;;;7.95;1.30;;;;;;;15.49;52.89;97375.66;5163622;28;20050;-73
2022/09/28 12:48:22;;;;;;;3.97;1.30;;;;;;;14.96;52.70;97375.91;5178860;28;20045;-75
2022/09/28 12:51:38;;;;;;;5.07;1.40;;;;;;;15.37;52.10;97380.06;5160635;28;20120;-73
2022/09/28 12:54:57;;;;;;;4.43;1.20;;;;;;;15.77;49.87;97380.66;5164614;28;20054;-73
2022/09/28 12:58:05;;;;;;;4.03;1.20;;;;;;;15.32;51.10;97372.69;5176282;28;20053;-73
2022/09/28 13:01:17;;;;;;;5.10;1.25;;;;;;;14.79;50.45;97378.25;5178470;28;20053;-72
2022/09/28 13:04:34;;;;;;;8.10;1.65;;;;;;;14.45;51.32;97390.81;5178746;28;20054;-71
2022/09/28 13:07:27;;;;;;;6.18;1.23;;;;;;;14.65;51.59;97373.97;5177773;28;20049;-72
2022/09/28 13:10:38;;;;;;;6.68;1.10;;;;;;;14.57;53.46;97383.84;5159962;28;20054;-76
2022/09/28 13:13:53;;;;;;;3.92;1.10;;;;;;;15.29;50.25;97375.78;5158748;28;20223;-76
2022/09/28 13:16:49;;;;;;;;;;;;;;;15.18;49.71;97379.13;5171428;28;20495;-76
2022/09/28 13:19:51;;;;;;;3.17;1.17;;;;;;;15.51;51.36;97376.28;5178673;28;19921;-77
2022/09/28 13:23:11;;;;;;;3.42;1.25;;;;;;;15.47;51.27;97375.06;5177424;28;20064;-73
2022/09/28 13:26:22;;;;;;;5.70;1.42;;;;;;;15.08;50.71;97373.41;5177042;28;20424;-73
2022/09/28 13:29:17;;;;;;;3.30;1.40;;;;;;;15.25;50.93;97362.03;5161065;28;20069;-74
2022/09/28 13:32:10;;;;;;;7.38;1.17;;;;;;;15.09;51.50;97348.34;5176257;28;20058;-74
2022/09/28 13:35:01;;;;;;;3.03;1.65;;;;;;;15.55;52.08;97363.31;5162266;28;20046;-74
2022/09/28 13:38:16;;;;;;;4.00;1.10;;;;;;;15.50;50.08;97367.44;5171807;28;20055;-76
2022/09/28 13:41:10;;;;;;;4.60;1.30;;;;;;;15.64;49.41;97362.03;5176231;28;20064;-76
2022/09/28 13:44:09;;;;;;;6.00;1.20;;;;;;;15.38;50.65;97371.81;5180135;28;20443;-76
2022/09/28 13:47:09;;;;;;;6.00;1.40;;;;;;;15.16;51.50;97370.50;5161961;28;20061;-77
2022/09/28 13:50:16;;;;;;;2.67;0.98;;;;;;;14.92;50.53;97369.38;5161893;28;20052;-75
2022/09/28 13:53:33;;;;;;;5.95;1.50;;;;;;;14.86;51.40;97375.53;5172796;28;20057;-75
2022/09/28 13:56:48;;;;;;;2.97;1.20;;;;;;;15.00;50.89;97353.13;5171170;28;20133;-75
2022/09/28 13:59:59;;;;;;;3.43;1.07;;;;;;;15.27;50.54;97376.00;5159067;28;20064;-74
2022/09/28 14:03:04;;;;;;;2.50;1.30;;;;;;;15.54;51.43;97380.38;5174131;28;20089;-73
2022/09/28 14:06:21;;;;;;;4.35;1.20;;;;;;;14.91;50.62;97383.75;5161659;28;20208;-75
2022/09/28 14:09:11;;;;;;;3.88;1.00;;;;;;;15.16;49.20;97386.50;5162543;28;20048;-73
2022/09/28 14:12:22;;;;;;;3.55;1.00;;;;;;;14.90;50.80;97390.94;5157669;28;20144;-73
2022/09/28 14:15:39;;;;;;;4.22;1.13;;;;;;;14.98;50.42;97390.69;5175780;28;20097;-72